sensor_id;sensor_type;location;lat;lon;timestamp;temperature;humidity
1546;DHT22;766;51.502;9.752;2022-10-26T00:01:25;9.80;99.90
1546;DHT22;766;51.502;9.752;2022-10-26T00:03:55;9.90;99.90
1546;DHT22;766;51.502;9.752;2022-10-26T00:06:25;10.00;99.90
1546;DHT22;766;51.502;9.752;2022-10-26T00:08:55;10.10;99.90
1546;DHT22;766;51.502;9.752;2022-10-26T00:11:23;10.10;99.90
1546;DHT22;766;51.502;9.752;2022-10-26T00:13:52;10.10;99.90
1546;DHT22;766;51.502;9.752;2022-10-26T00:16:25;10.10;99.90
1546;DHT22;766;51.502;9.752;2022-10-26T00:18:55;10.00;99.90
1546;DHT22;766;51.502;9.752;2022-10-26T00:21:23;10.00;99.90
1546;DHT22;766;51.502;9.752;2022-10-26T00:23:52;10.00;99.90
1546;DHT22;766;51.502;9.752;2022-10-26T00:26:21;10.00;99.90
1546;DHT22;766;51.502;9.752;2022-10-26T00:28:52;10.10;99.90
1546;DHT22;766;51.502;9.752;2022-10-26T00:31:20;10.10;99.90
1546;DHT22;766;51.502;9.752;2022-10-26T00:33:51;10.10;99.90
1546;DHT22;766;51.502;9.752;2022-10-26T00:36:21;10.20;99.90
1546;DHT22;766;51.502;9.752;2022-10-26T00:38:51;10.20;99.90
1546;DHT22;766;51.502;9.752;2022-10-26T00:41:22;10.20;99.90
1546;DHT22;766;51.502;9.752;2022-10-26T00:43:52;10.20;99.90
1546;DHT22;766;51.502;9.752;2022-10-26T00:46:21;10.20;99.90
1546;DHT22;766;51.502;9.752;2022-10-26T00:48:53;10.30;99.90
1546;DHT22;766;51.502;9.752;2022-10-26T00:51:28;10.20;99.90
1546;DHT22;766;51.502;9.752;2022-10-26T00:54:01;10.20;99.90
1546;DHT22;766;51.502;9.752;2022-10-26T00:56:31;10.20;99.90
1546;DHT22;766;51.502;9.752;2022-10-26T00:59:02;10.20;99.90
1546;DHT22;766;51.502;9.752;2022-10-26T01:01:33;10.20;99.90
1546;DHT22;766;51.502;9.752;2022-10-26T01:04:04;10.20;99.90
1546;DHT22;766;51.502;9.752;2022-10-26T01:06:36;10.10;99.90
1546;DHT22;766;51.502;9.752;2022-10-26T01:09:05;10.20;99.90
1546;DHT22;766;51.502;9.752;2022-10-26T01:11:33;10.10;99.90
1546;DHT22;766;51.502;9.752;2022-10-26T01:14:05;10.20;99.90
1546;DHT22;766;51.502;9.752;2022-10-26T01:16:45;10.20;99.90
1546;DHT22;766;51.502;9.752;2022-10-26T01:22:14;10.20;99.90
1546;DHT22;766;51.502;9.752;2022-10-26T01:24:57;10.20;99.90
1546;DHT22;766;51.502;9.752;2022-10-26T01:27:33;10.10;99.90
1546;DHT22;766;51.502;9.752;2022-10-26T01:30:21;10.10;99.90
1546;DHT22;766;51.502;9.752;2022-10-26T01:35:54;9.90;99.90
1546;DHT22;766;51.502;9.752;2022-10-26T01:38:31;10.00;99.90
1546;DHT22;766;51.502;9.752;2022-10-26T01:41:07;10.10;99.90
1546;DHT22;766;51.502;9.752;2022-10-26T01:43:42;9.90;99.90
1546;DHT22;766;51.502;9.752;2022-10-26T01:46:15;9.90;99.90
1546;DHT22;766;51.502;9.752;2022-10-26T01:48:51;9.80;99.90
1546;DHT22;766;51.502;9.752;2022-10-26T01:51:21;9.80;99.90
1546;DHT22;766;51.502;9.752;2022-10-26T01:53:49;9.80;99.90
1546;DHT22;766;51.502;9.752;2022-10-26T01:56:20;9.50;99.90
1546;DHT22;766;51.502;9.752;2022-10-26T01:59:23;9.40;99.90
1546;DHT22;766;51.502;9.752;2022-10-26T02:08:52;9.40;99.90
1546;DHT22;766;51.502;9.752;2022-10-26T02:11:31;9.40;99.90
1546;DHT22;766;51.502;9.752;2022-10-26T02:14:08;9.50;99.90
1546;DHT22;766;51.502;9.752;2022-10-26T02:16:51;9.50;99.90
1546;DHT22;766;51.502;9.752;2022-10-26T02:19:32;9.40;99.90
1546;DHT22;766;51.502;9.752;2022-10-26T02:22:07;9.40;99.90
1546;DHT22;766;51.502;9.752;2022-10-26T02:24:37;9.30;99.90
1546;DHT22;766;51.502;9.752;2022-10-26T02:27:14;9.10;99.90
1546;DHT22;766;51.502;9.752;2022-10-26T02:29:43;9.10;99.90
1546;DHT22;766;51.502;9.752;2022-10-26T02:32:13;9.10;99.90
1546;DHT22;766;51.502;9.752;2022-10-26T02:34:45;9.10;99.90
1546;DHT22;766;51.502;9.752;2022-10-26T02:37:15;9.10;99.90
1546;DHT22;766;51.502;9.752;2022-10-26T02:39:46;9.10;99.90
1546;DHT22;766;51.502;9.752;2022-10-26T02:42:17;9.10;99.90
1546;DHT22;766;51.502;9.752;2022-10-26T02:44:49;9.00;99.90
1546;DHT22;766;51.502;9.752;2022-10-26T02:47:18;9.10;99.90
1546;DHT22;766;51.502;9.752;2022-10-26T02:49:49;9.00;99.90
1546;DHT22;766;51.502;9.752;2022-10-26T02:52:23;9.00;99.90
1546;DHT22;766;51.502;9.752;2022-10-26T02:54:58;9.10;99.90
1546;DHT22;766;51.502;9.752;2022-10-26T02:57:30;9.10;99.90
1546;DHT22;766;51.502;9.752;2022-10-26T03:00:02;9.00;99.90
1546;DHT22;766;51.502;9.752;2022-10-26T03:02:30;8.90;99.90
1546;DHT22;766;51.502;9.752;2022-10-26T03:05:08;8.90;99.90
1546;DHT22;766;51.502;9.752;2022-10-26T03:07:37;8.90;99.90
1546;DHT22;766;51.502;9.752;2022-10-26T03:10:06;8.80;99.90
1546;DHT22;766;51.502;9.752;2022-10-26T03:12:35;8.70;99.90
1546;DHT22;766;51.502;9.752;2022-10-26T03:15:04;8.80;99.90
1546;DHT22;766;51.502;9.752;2022-10-26T03:17:32;8.90;99.90
1546;DHT22;766;51.502;9.752;2022-10-26T03:20:01;9.00;99.90
1546;DHT22;766;51.502;9.752;2022-10-26T03:22:31;9.10;99.90
1546;DHT22;766;51.502;9.752;2022-10-26T03:24:59;8.80;99.90
1546;DHT22;766;51.502;9.752;2022-10-26T03:27:28;8.80;99.90
1546;DHT22;766;51.502;9.752;2022-10-26T03:29:56;8.70;99.90
1546;DHT22;766;51.502;9.752;2022-10-26T03:32:25;8.70;99.90
1546;DHT22;766;51.502;9.752;2022-10-26T03:34:53;8.80;99.90
1546;DHT22;766;51.502;9.752;2022-10-26T03:37:22;8.70;99.90
1546;DHT22;766;51.502;9.752;2022-10-26T03:39:51;8.90;99.90
1546;DHT22;766;51.502;9.752;2022-10-26T03:42:20;9.00;99.90
1546;DHT22;766;51.502;9.752;2022-10-26T03:44:48;8.80;99.90
1546;DHT22;766;51.502;9.752;2022-10-26T03:47:18;8.70;99.90
1546;DHT22;766;51.502;9.752;2022-10-26T03:49:46;8.70;99.90
1546;DHT22;766;51.502;9.752;2022-10-26T03:52:15;8.70;99.90
1546;DHT22;766;51.502;9.752;2022-10-26T03:54:43;8.70;99.90
1546;DHT22;766;51.502;9.752;2022-10-26T03:57:13;8.70;99.90
1546;DHT22;766;51.502;9.752;2022-10-26T03:59:42;8.70;99.90
1546;DHT22;766;51.502;9.752;2022-10-26T04:02:10;8.80;99.90
1546;DHT22;766;51.502;9.752;2022-10-26T04:04:40;8.80;99.90
1546;DHT22;766;51.502;9.752;2022-10-26T04:07:08;8.80;99.90
1546;DHT22;766;51.502;9.752;2022-10-26T04:09:39;8.60;99.90
1546;DHT22;766;51.502;9.752;2022-10-26T04:12:08;8.60;99.90
1546;DHT22;766;51.502;9.752;2022-10-26T04:14:40;8.60;99.90
1546;DHT22;766;51.502;9.752;2022-10-26T04:17:08;8.60;99.90
1546;DHT22;766;51.502;9.752;2022-10-26T04:19:37;8.80;99.90
1546;DHT22;766;51.502;9.752;2022-10-26T04:22:06;8.80;99.90
1546;DHT22;766;51.502;9.752;2022-10-26T04:24:35;8.70;99.90
1546;DHT22;766;51.502;9.752;2022-10-26T04:27:05;8.80;99.90
1546;DHT22;766;51.502;9.752;2022-10-26T04:29:34;8.80;99.90
1546;DHT22;766;51.502;9.752;2022-10-26T04:32:04;8.80;99.90
1546;DHT22;766;51.502;9.752;2022-10-26T04:34:34;8.60;99.90
1546;DHT22;766;51.502;9.752;2022-10-26T04:37:02;8.70;99.90
1546;DHT22;766;51.502;9.752;2022-10-26T04:39:31;8.70;99.90
1546;DHT22;766;51.502;9.752;2022-10-26T04:41:59;8.90;99.90
1546;DHT22;766;51.502;9.752;2022-10-26T04:44:27;9.00;99.90
1546;DHT22;766;51.502;9.752;2022-10-26T04:46:55;9.00;99.90
1546;DHT22;766;51.502;9.752;2022-10-26T04:49:25;9.00;99.90
1546;DHT22;766;51.502;9.752;2022-10-26T04:51:53;9.00;99.90
1546;DHT22;766;51.502;9.752;2022-10-26T04:54:22;9.00;99.90
1546;DHT22;766;51.502;9.752;2022-10-26T04:56:50;8.80;99.90
1546;DHT22;766;51.502;9.752;2022-10-26T04:59:19;8.70;99.90
1546;DHT22;766;51.502;9.752;2022-10-26T05:01:47;8.70;99.90
1546;DHT22;766;51.502;9.752;2022-10-26T05:04:15;8.70;99.90
1546;DHT22;766;51.502;9.752;2022-10-26T05:06:45;8.70;99.90
1546;DHT22;766;51.502;9.752;2022-10-26T05:09:14;8.70;99.90
1546;DHT22;766;51.502;9.752;2022-10-26T05:11:45;8.80;99.90
1546;DHT22;766;51.502;9.752;2022-10-26T05:14:13;8.80;99.90
1546;DHT22;766;51.502;9.752;2022-10-26T05:16:41;8.90;99.90
1546;DHT22;766;51.502;9.752;2022-10-26T05:19:14;9.00;99.90
1546;DHT22;766;51.502;9.752;2022-10-26T05:21:42;9.10;99.90
1546;DHT22;766;51.502;9.752;2022-10-26T05:24:17;9.30;99.90
1546;DHT22;766;51.502;9.752;2022-10-26T05:26:46;9.30;99.90
1546;DHT22;766;51.502;9.752;2022-10-26T05:29:14;9.50;99.90
1546;DHT22;766;51.502;9.752;2022-10-26T05:31:46;9.40;99.90
1546;DHT22;766;51.502;9.752;2022-10-26T05:34:15;9.40;99.90
1546;DHT22;766;51.502;9.752;2022-10-26T05:36:43;9.20;99.90
1546;DHT22;766;51.502;9.752;2022-10-26T05:39:12;9.20;99.90
1546;DHT22;766;51.502;9.752;2022-10-26T05:41:41;9.30;99.90
1546;DHT22;766;51.502;9.752;2022-10-26T05:44:10;9.10;99.90
1546;DHT22;766;51.502;9.752;2022-10-26T05:46:38;9.20;99.90
1546;DHT22;766;51.502;9.752;2022-10-26T05:49:07;9.20;99.90
1546;DHT22;766;51.502;9.752;2022-10-26T05:51:35;9.20;99.90
1546;DHT22;766;51.502;9.752;2022-10-26T05:54:03;9.20;99.90
1546;DHT22;766;51.502;9.752;2022-10-26T05:56:49;9.20;99.90
1546;DHT22;766;51.502;9.752;2022-10-26T05:59:18;9.20;99.90
1546;DHT22;766;51.502;9.752;2022-10-26T06:01:55;9.20;99.90
1546;DHT22;766;51.502;9.752;2022-10-26T06:04:35;9.30;99.90
1546;DHT22;766;51.502;9.752;2022-10-26T06:07:11;9.20;99.90
1546;DHT22;766;51.502;9.752;2022-10-26T06:09:40;9.10;99.90
1546;DHT22;766;51.502;9.752;2022-10-26T06:12:14;9.20;99.90
1546;DHT22;766;51.502;9.752;2022-10-26T06:14:46;9.20;99.90
1546;DHT22;766;51.502;9.752;2022-10-26T06:17:30;9.10;99.90
1546;DHT22;766;51.502;9.752;2022-10-26T06:20:19;9.10;99.90
1546;DHT22;766;51.502;9.752;2022-10-26T06:23:07;9.20;99.90
1546;DHT22;766;51.502;9.752;2022-10-26T06:25:44;9.30;99.90
1546;DHT22;766;51.502;9.752;2022-10-26T06:28:23;9.20;99.90
1546;DHT22;766;51.502;9.752;2022-10-26T06:30:55;9.20;99.90
1546;DHT22;766;51.502;9.752;2022-10-26T06:33:24;9.30;99.90
1546;DHT22;766;51.502;9.752;2022-10-26T06:36:04;9.40;99.90
1546;DHT22;766;51.502;9.752;2022-10-26T06:38:36;9.20;99.90
1546;DHT22;766;51.502;9.752;2022-10-26T06:41:06;9.40;99.90
1546;DHT22;766;51.502;9.752;2022-10-26T06:43:37;9.30;99.90
1546;DHT22;766;51.502;9.752;2022-10-26T06:46:15;9.30;99.90
1546;DHT22;766;51.502;9.752;2022-10-26T06:48:55;9.40;99.90
1546;DHT22;766;51.502;9.752;2022-10-26T06:51:26;9.40;99.90
1546;DHT22;766;51.502;9.752;2022-10-26T06:54:00;9.50;99.90
1546;DHT22;766;51.502;9.752;2022-10-26T06:56:31;9.50;99.90
1546;DHT22;766;51.502;9.752;2022-10-26T06:59:07;9.50;99.90
1546;DHT22;766;51.502;9.752;2022-10-26T07:01:36;9.50;99.90
1546;DHT22;766;51.502;9.752;2022-10-26T07:04:05;9.40;99.90
1546;DHT22;766;51.502;9.752;2022-10-26T07:06:33;9.60;99.90
1546;DHT22;766;51.502;9.752;2022-10-26T07:09:05;9.70;99.90
1546;DHT22;766;51.502;9.752;2022-10-26T07:11:34;9.70;99.90
1546;DHT22;766;51.502;9.752;2022-10-26T07:14:04;9.90;99.90
1546;DHT22;766;51.502;9.752;2022-10-26T07:16:34;9.90;99.90
1546;DHT22;766;51.502;9.752;2022-10-26T07:19:03;9.90;99.90
1546;DHT22;766;51.502;9.752;2022-10-26T07:21:32;10.10;99.90
1546;DHT22;766;51.502;9.752;2022-10-26T07:24:03;10.10;99.90
1546;DHT22;766;51.502;9.752;2022-10-26T07:26:32;10.20;99.90
1546;DHT22;766;51.502;9.752;2022-10-26T07:29:00;10.10;99.90
1546;DHT22;766;51.502;9.752;2022-10-26T07:31:30;10.20;99.90
1546;DHT22;766;51.502;9.752;2022-10-26T07:33:59;10.30;99.90
1546;DHT22;766;51.502;9.752;2022-10-26T07:36:28;10.40;99.90
1546;DHT22;766;51.502;9.752;2022-10-26T07:38:56;10.40;99.90
1546;DHT22;766;51.502;9.752;2022-10-26T07:41:25;10.30;99.90
1546;DHT22;766;51.502;9.752;2022-10-26T07:43:53;10.30;99.90
1546;DHT22;766;51.502;9.752;2022-10-26T07:46:22;10.30;99.90
1546;DHT22;766;51.502;9.752;2022-10-26T07:48:52;10.50;99.90
1546;DHT22;766;51.502;9.752;2022-10-26T07:51:20;10.60;99.90
1546;DHT22;766;51.502;9.752;2022-10-26T07:53:49;10.70;99.90
1546;DHT22;766;51.502;9.752;2022-10-26T07:56:17;10.90;99.90
1546;DHT22;766;51.502;9.752;2022-10-26T07:58:46;10.80;99.90
1546;DHT22;766;51.502;9.752;2022-10-26T08:01:14;10.90;99.90
1546;DHT22;766;51.502;9.752;2022-10-26T08:03:43;11.20;99.90
1546;DHT22;766;51.502;9.752;2022-10-26T08:06:15;11.20;99.90
1546;DHT22;766;51.502;9.752;2022-10-26T08:08:43;11.40;99.90
1546;DHT22;766;51.502;9.752;2022-10-26T08:11:14;11.40;99.90
1546;DHT22;766;51.502;9.752;2022-10-26T08:13:43;11.40;99.90
1546;DHT22;766;51.502;9.752;2022-10-26T08:16:12;11.50;99.90
1546;DHT22;766;51.502;9.752;2022-10-26T08:18:40;11.60;99.90
1546;DHT22;766;51.502;9.752;2022-10-26T08:21:10;11.50;99.90
1546;DHT22;766;51.502;9.752;2022-10-26T08:23:48;11.50;99.90
1546;DHT22;766;51.502;9.752;2022-10-26T08:26:17;11.60;99.90
1546;DHT22;766;51.502;9.752;2022-10-26T08:28:47;11.60;99.90
1546;DHT22;766;51.502;9.752;2022-10-26T08:31:16;11.50;99.90
1546;DHT22;766;51.502;9.752;2022-10-26T08:33:44;11.70;99.90
1546;DHT22;766;51.502;9.752;2022-10-26T08:36:12;11.70;99.90
1546;DHT22;766;51.502;9.752;2022-10-26T08:38:48;11.80;99.90
1546;DHT22;766;51.502;9.752;2022-10-26T08:41:17;11.70;99.90
1546;DHT22;766;51.502;9.752;2022-10-26T08:43:50;11.80;99.90
1546;DHT22;766;51.502;9.752;2022-10-26T08:46:22;11.80;99.90
1546;DHT22;766;51.502;9.752;2022-10-26T08:48:55;11.40;99.90
1546;DHT22;766;51.502;9.752;2022-10-26T08:51:30;11.40;99.90
1546;DHT22;766;51.502;9.752;2022-10-26T08:54:07;11.30;99.90
1546;DHT22;766;51.502;9.752;2022-10-26T08:56:39;11.30;99.90
1546;DHT22;766;51.502;9.752;2022-10-26T08:59:18;11.60;99.90
1546;DHT22;766;51.502;9.752;2022-10-26T09:01:53;11.60;99.90
1546;DHT22;766;51.502;9.752;2022-10-26T09:04:26;11.70;99.90
1546;DHT22;766;51.502;9.752;2022-10-26T09:07:00;11.80;99.90
1546;DHT22;766;51.502;9.752;2022-10-26T09:09:40;11.80;99.90
1546;DHT22;766;51.502;9.752;2022-10-26T09:12:19;11.70;99.90
1546;DHT22;766;51.502;9.752;2022-10-26T09:15:02;11.70;99.90
1546;DHT22;766;51.502;9.752;2022-10-26T09:17:41;11.80;99.90
1546;DHT22;766;51.502;9.752;2022-10-26T09:20:37;11.70;99.90
1546;DHT22;766;51.502;9.752;2022-10-26T09:23:17;11.80;99.90
1546;DHT22;766;51.502;9.752;2022-10-26T09:25:56;11.80;99.90
1546;DHT22;766;51.502;9.752;2022-10-26T09:28:27;11.80;99.90
1546;DHT22;766;51.502;9.752;2022-10-26T09:30:59;11.70;99.90
1546;DHT22;766;51.502;9.752;2022-10-26T09:33:28;11.80;99.90
1546;DHT22;766;51.502;9.752;2022-10-26T09:36:01;11.90;99.90
1546;DHT22;766;51.502;9.752;2022-10-26T09:38:31;11.80;99.90
1546;DHT22;766;51.502;9.752;2022-10-26T09:41:05;12.00;99.90
1546;DHT22;766;51.502;9.752;2022-10-26T09:43:41;12.10;99.90
1546;DHT22;766;51.502;9.752;2022-10-26T09:46:12;12.10;99.90
1546;DHT22;766;51.502;9.752;2022-10-26T09:48:45;12.10;99.90
1546;DHT22;766;51.502;9.752;2022-10-26T09:51:15;12.20;99.90
1546;DHT22;766;51.502;9.752;2022-10-26T09:53:44;12.30;99.90
1546;DHT22;766;51.502;9.752;2022-10-26T09:56:14;12.40;99.90
1546;DHT22;766;51.502;9.752;2022-10-26T09:58:50;12.50;99.90
1546;DHT22;766;51.502;9.752;2022-10-26T10:01:29;12.60;99.90
1546;DHT22;766;51.502;9.752;2022-10-26T10:04:21;12.60;99.90
1546;DHT22;766;51.502;9.752;2022-10-26T10:06:51;12.60;99.90
1546;DHT22;766;51.502;9.752;2022-10-26T10:09:21;12.70;99.90
1546;DHT22;766;51.502;9.752;2022-10-26T10:11:53;12.80;99.90
1546;DHT22;766;51.502;9.752;2022-10-26T10:14:29;12.80;99.90
1546;DHT22;766;51.502;9.752;2022-10-26T10:17:04;12.80;99.90
1546;DHT22;766;51.502;9.752;2022-10-26T10:19:36;12.60;99.90
1546;DHT22;766;51.502;9.752;2022-10-26T10:22:10;12.50;99.90
1546;DHT22;766;51.502;9.752;2022-10-26T10:24:40;12.60;99.90
1546;DHT22;766;51.502;9.752;2022-10-26T10:27:17;12.90;99.90
1546;DHT22;766;51.502;9.752;2022-10-26T10:29:48;12.80;99.90
1546;DHT22;766;51.502;9.752;2022-10-26T10:32:20;12.90;99.90
1546;DHT22;766;51.502;9.752;2022-10-26T10:34:49;13.10;99.90
1546;DHT22;766;51.502;9.752;2022-10-26T10:37:23;13.20;99.90
1546;DHT22;766;51.502;9.752;2022-10-26T10:39:56;13.10;99.90
1546;DHT22;766;51.502;9.752;2022-10-26T10:42:30;13.10;99.90
1546;DHT22;766;51.502;9.752;2022-10-26T10:45:00;13.30;99.90
1546;DHT22;766;51.502;9.752;2022-10-26T10:47:31;13.30;99.90
1546;DHT22;766;51.502;9.752;2022-10-26T10:50:05;13.60;99.90
1546;DHT22;766;51.502;9.752;2022-10-26T10:52:34;14.00;99.90
1546;DHT22;766;51.502;9.752;2022-10-26T10:55:14;14.30;99.90
1546;DHT22;766;51.502;9.752;2022-10-26T10:58:04;14.70;99.90
1546;DHT22;766;51.502;9.752;2022-10-26T11:00:36;15.00;99.90
1546;DHT22;766;51.502;9.752;2022-10-26T11:03:30;15.20;99.90
1546;DHT22;766;51.502;9.752;2022-10-26T11:06:04;15.20;99.90
1546;DHT22;766;51.502;9.752;2022-10-26T11:08:40;14.90;99.90
1546;DHT22;766;51.502;9.752;2022-10-26T11:11:14;14.90;99.90
1546;DHT22;766;51.502;9.752;2022-10-26T11:13:49;15.20;99.90
1546;DHT22;766;51.502;9.752;2022-10-26T11:16:22;15.20;99.90
1546;DHT22;766;51.502;9.752;2022-10-26T11:18:56;15.00;99.90
1546;DHT22;766;51.502;9.752;2022-10-26T11:21:27;15.10;99.90
1546;DHT22;766;51.502;9.752;2022-10-26T11:24:09;15.00;99.90
1546;DHT22;766;51.502;9.752;2022-10-26T11:26:45;14.90;99.90
1546;DHT22;766;51.502;9.752;2022-10-26T11:29:25;15.30;99.90
1546;DHT22;766;51.502;9.752;2022-10-26T11:32:05;15.40;99.90
1546;DHT22;766;51.502;9.752;2022-10-26T11:34:39;15.70;99.90
1546;DHT22;766;51.502;9.752;2022-10-26T11:37:12;15.90;99.90
1546;DHT22;766;51.502;9.752;2022-10-26T11:39:45;15.90;99.90
1546;DHT22;766;51.502;9.752;2022-10-26T11:42:20;15.90;99.90
1546;DHT22;766;51.502;9.752;2022-10-26T11:44:58;15.70;99.90
1546;DHT22;766;51.502;9.752;2022-10-26T11:47:34;15.70;99.90
1546;DHT22;766;51.502;9.752;2022-10-26T11:50:14;15.90;99.90
1546;DHT22;766;51.502;9.752;2022-10-26T11:52:48;16.30;99.90
1546;DHT22;766;51.502;9.752;2022-10-26T11:55:21;16.70;99.90
1546;DHT22;766;51.502;9.752;2022-10-26T11:57:52;16.90;99.90
1546;DHT22;766;51.502;9.752;2022-10-26T12:00:22;17.10;99.90
1546;DHT22;766;51.502;9.752;2022-10-26T12:02:55;17.10;99.90
1546;DHT22;766;51.502;9.752;2022-10-26T12:05:32;16.90;99.90
1546;DHT22;766;51.502;9.752;2022-10-26T12:08:05;17.20;99.90
1546;DHT22;766;51.502;9.752;2022-10-26T12:10:38;17.30;99.90
1546;DHT22;766;51.502;9.752;2022-10-26T12:13:16;17.30;99.90
1546;DHT22;766;51.502;9.752;2022-10-26T12:15:51;17.20;99.90
1546;DHT22;766;51.502;9.752;2022-10-26T12:18:39;17.10;99.90
1546;DHT22;766;51.502;9.752;2022-10-26T12:21:24;17.00;99.90
1546;DHT22;766;51.502;9.752;2022-10-26T12:23:54;17.10;99.90
1546;DHT22;766;51.502;9.752;2022-10-26T12:26:49;17.10;99.90
1546;DHT22;766;51.502;9.752;2022-10-26T12:29:39;17.10;99.90
1546;DHT22;766;51.502;9.752;2022-10-26T12:38:55;17.50;99.90
1546;DHT22;766;51.502;9.752;2022-10-26T12:41:24;17.20;99.90
1546;DHT22;766;51.502;9.752;2022-10-26T12:43:57;16.80;99.90
1546;DHT22;766;51.502;9.752;2022-10-26T12:46:37;16.90;99.90
1546;DHT22;766;51.502;9.752;2022-10-26T12:52:19;17.40;99.90
1546;DHT22;766;51.502;9.752;2022-10-26T12:58:29;17.80;99.90
1546;DHT22;766;51.502;9.752;2022-10-26T13:04:19;18.10;99.90
1546;DHT22;766;51.502;9.752;2022-10-26T13:09:57;18.20;99.90
1546;DHT22;766;51.502;9.752;2022-10-26T13:12:34;18.30;99.90
1546;DHT22;766;51.502;9.752;2022-10-26T13:15:04;17.80;99.90
1546;DHT22;766;51.502;9.752;2022-10-26T13:17:35;17.70;99.90
1546;DHT22;766;51.502;9.752;2022-10-26T13:20:05;17.50;99.90
1546;DHT22;766;51.502;9.752;2022-10-26T13:22:44;17.50;99.90
1546;DHT22;766;51.502;9.752;2022-10-26T13:25:22;17.50;99.90
1546;DHT22;766;51.502;9.752;2022-10-26T13:28:00;17.40;99.90
1546;DHT22;766;51.502;9.752;2022-10-26T13:30:42;17.40;99.90
1546;DHT22;766;51.502;9.752;2022-10-26T13:33:23;17.60;99.90
1546;DHT22;766;51.502;9.752;2022-10-26T13:36:01;17.70;99.90
1546;DHT22;766;51.502;9.752;2022-10-26T13:38:36;17.60;99.90
1546;DHT22;766;51.502;9.752;2022-10-26T13:41:18;17.80;99.90
1546;DHT22;766;51.502;9.752;2022-10-26T13:43:49;17.90;99.90
1546;DHT22;766;51.502;9.752;2022-10-26T13:46:25;18.00;99.90
1546;DHT22;766;51.502;9.752;2022-10-26T13:48:59;18.00;99.90
1546;DHT22;766;51.502;9.752;2022-10-26T13:51:38;18.30;99.90
1546;DHT22;766;51.502;9.752;2022-10-26T13:54:23;18.50;99.90
1546;DHT22;766;51.502;9.752;2022-10-26T13:57:04;18.50;99.90
1546;DHT22;766;51.502;9.752;2022-10-26T13:59:40;18.30;99.90
1546;DHT22;766;51.502;9.752;2022-10-26T14:02:18;18.20;99.90
1546;DHT22;766;51.502;9.752;2022-10-26T14:04:52;18.20;99.90
1546;DHT22;766;51.502;9.752;2022-10-26T14:07:24;18.10;99.90
1546;DHT22;766;51.502;9.752;2022-10-26T14:09:54;17.90;99.90
1546;DHT22;766;51.502;9.752;2022-10-26T14:12:25;17.70;99.90
1546;DHT22;766;51.502;9.752;2022-10-26T14:15:01;17.60;99.90
1546;DHT22;766;51.502;9.752;2022-10-26T14:17:30;17.30;99.90
1546;DHT22;766;51.502;9.752;2022-10-26T14:19:58;17.20;99.90
1546;DHT22;766;51.502;9.752;2022-10-26T14:22:27;17.00;99.90
1546;DHT22;766;51.502;9.752;2022-10-26T14:24:58;16.90;99.90
1546;DHT22;766;51.502;9.752;2022-10-26T14:27:31;16.80;99.90
1546;DHT22;766;51.502;9.752;2022-10-26T14:30:19;16.80;99.90
1546;DHT22;766;51.502;9.752;2022-10-26T14:32:49;16.80;99.90
1546;DHT22;766;51.502;9.752;2022-10-26T14:35:21;16.70;99.90
1546;DHT22;766;51.502;9.752;2022-10-26T14:37:51;16.70;99.90
1546;DHT22;766;51.502;9.752;2022-10-26T14:40:22;16.70;99.90
1546;DHT22;766;51.502;9.752;2022-10-26T14:42:57;16.60;99.90
1546;DHT22;766;51.502;9.752;2022-10-26T14:45:29;16.60;99.90
1546;DHT22;766;51.502;9.752;2022-10-26T14:48:21;16.50;99.90
1546;DHT22;766;51.502;9.752;2022-10-26T14:51:00;16.50;99.90
1546;DHT22;766;51.502;9.752;2022-10-26T14:53:34;16.50;99.90
1546;DHT22;766;51.502;9.752;2022-10-26T14:56:05;16.40;99.90
1546;DHT22;766;51.502;9.752;2022-10-26T14:58:48;16.40;99.90
1546;DHT22;766;51.502;9.752;2022-10-26T15:01:27;16.30;99.90
1546;DHT22;766;51.502;9.752;2022-10-26T15:04:01;16.20;99.90
1546;DHT22;766;51.502;9.752;2022-10-26T15:06:41;16.20;99.90
1546;DHT22;766;51.502;9.752;2022-10-26T15:09:29;16.20;99.90
1546;DHT22;766;51.502;9.752;2022-10-26T15:12:03;16.10;99.90
1546;DHT22;766;51.502;9.752;2022-10-26T15:14:36;16.00;99.90
1546;DHT22;766;51.502;9.752;2022-10-26T15:17:20;16.00;99.90
1546;DHT22;766;51.502;9.752;2022-10-26T15:19:51;15.90;99.90
1546;DHT22;766;51.502;9.752;2022-10-26T15:22:22;15.90;99.90
1546;DHT22;766;51.502;9.752;2022-10-26T15:25:00;15.80;99.90
1546;DHT22;766;51.502;9.752;2022-10-26T15:27:29;15.70;99.90
1546;DHT22;766;51.502;9.752;2022-10-26T15:30:21;15.70;99.90
1546;DHT22;766;51.502;9.752;2022-10-26T15:32:50;15.70;99.90
1546;DHT22;766;51.502;9.752;2022-10-26T15:35:28;15.60;99.90
1546;DHT22;766;51.502;9.752;2022-10-26T15:37:57;15.60;99.90
1546;DHT22;766;51.502;9.752;2022-10-26T15:40:27;15.50;99.90
1546;DHT22;766;51.502;9.752;2022-10-26T15:42:59;15.50;99.90
1546;DHT22;766;51.502;9.752;2022-10-26T15:45:31;15.40;99.90
1546;DHT22;766;51.502;9.752;2022-10-26T15:48:17;15.30;99.90
1546;DHT22;766;51.502;9.752;2022-10-26T15:50:46;15.20;99.90
1546;DHT22;766;51.502;9.752;2022-10-26T15:53:18;15.20;99.90
1546;DHT22;766;51.502;9.752;2022-10-26T15:55:50;15.20;99.90
1546;DHT22;766;51.502;9.752;2022-10-26T15:58:19;15.20;99.90
1546;DHT22;766;51.502;9.752;2022-10-26T16:00:49;15.30;99.90
1546;DHT22;766;51.502;9.752;2022-10-26T16:03:19;15.20;99.90
1546;DHT22;766;51.502;9.752;2022-10-26T16:05:54;15.20;99.90
1546;DHT22;766;51.502;9.752;2022-10-26T16:08:25;15.20;99.90
1546;DHT22;766;51.502;9.752;2022-10-26T16:10:55;15.10;99.90
1546;DHT22;766;51.502;9.752;2022-10-26T16:13:23;15.10;99.90
1546;DHT22;766;51.502;9.752;2022-10-26T16:15:53;15.10;99.90
1546;DHT22;766;51.502;9.752;2022-10-26T16:18:22;15.00;99.90
1546;DHT22;766;51.502;9.752;2022-10-26T16:20:51;15.10;99.90
1546;DHT22;766;51.502;9.752;2022-10-26T16:23:19;15.00;99.90
1546;DHT22;766;51.502;9.752;2022-10-26T16:25:47;14.90;99.90
1546;DHT22;766;51.502;9.752;2022-10-26T16:28:16;14.90;99.90
1546;DHT22;766;51.502;9.752;2022-10-26T16:30:44;14.90;99.90
1546;DHT22;766;51.502;9.752;2022-10-26T16:33:14;14.90;99.90
1546;DHT22;766;51.502;9.752;2022-10-26T16:35:42;14.90;99.90
1546;DHT22;766;51.502;9.752;2022-10-26T16:38:11;14.90;99.90
1546;DHT22;766;51.502;9.752;2022-10-26T16:40:40;14.90;99.90
1546;DHT22;766;51.502;9.752;2022-10-26T16:43:11;14.90;99.90
1546;DHT22;766;51.502;9.752;2022-10-26T16:45:40;14.90;99.90
1546;DHT22;766;51.502;9.752;2022-10-26T16:48:09;14.90;99.90
1546;DHT22;766;51.502;9.752;2022-10-26T16:50:42;14.90;99.90
1546;DHT22;766;51.502;9.752;2022-10-26T16:53:11;14.80;99.90
1546;DHT22;766;51.502;9.752;2022-10-26T16:55:40;14.80;99.90
1546;DHT22;766;51.502;9.752;2022-10-26T16:58:10;14.70;99.90
1546;DHT22;766;51.502;9.752;2022-10-26T17:00:38;14.80;99.90
1546;DHT22;766;51.502;9.752;2022-10-26T17:03:06;14.80;99.90
1546;DHT22;766;51.502;9.752;2022-10-26T17:05:34;14.80;99.90
1546;DHT22;766;51.502;9.752;2022-10-26T17:08:06;14.80;99.90
1546;DHT22;766;51.502;9.752;2022-10-26T17:10:34;14.90;99.90
1546;DHT22;766;51.502;9.752;2022-10-26T17:13:03;14.90;99.90
1546;DHT22;766;51.502;9.752;2022-10-26T17:15:31;14.80;99.90
1546;DHT22;766;51.502;9.752;2022-10-26T17:18:01;14.70;99.90
1546;DHT22;766;51.502;9.752;2022-10-26T17:20:29;14.80;99.90
1546;DHT22;766;51.502;9.752;2022-10-26T17:22:57;14.80;99.90
1546;DHT22;766;51.502;9.752;2022-10-26T17:25:27;14.80;99.90
1546;DHT22;766;51.502;9.752;2022-10-26T17:27:56;14.80;99.90
1546;DHT22;766;51.502;9.752;2022-10-26T17:30:25;14.80;99.90
1546;DHT22;766;51.502;9.752;2022-10-26T17:33:00;14.80;99.90